sensor_id;sensor_type;location;lat;lon;timestamp;temperature;humidity
76291;DHT22;65100;46.884;17.410;2023-08-06T00:01:12;18.59;85.16
76291;DHT22;65100;46.884;17.410;2023-08-06T00:03:37;18.64;84.68
76291;DHT22;65100;46.884;17.410;2023-08-06T00:06:05;18.54;85.65
76291;DHT22;65100;46.884;17.410;2023-08-06T00:08:30;18.46;85.80
76291;DHT22;65100;46.884;17.410;2023-08-06T00:10:56;18.56;85.74
76291;DHT22;65100;46.884;17.410;2023-08-06T00:13:21;18.60;85.29
76291;DHT22;65100;46.884;17.410;2023-08-06T00:15:47;18.50;85.62
76291;DHT22;65100;46.884;17.410;2023-08-06T00:18:12;18.57;85.51
76291;DHT22;65100;46.884;17.410;2023-08-06T00:20:41;18.49;85.89
76291;DHT22;65100;46.884;17.410;2023-08-06T00:23:07;18.50;85.79
76291;DHT22;65100;46.884;17.410;2023-08-06T00:25:33;18.44;85.96
76291;DHT22;65100;46.884;17.410;2023-08-06T00:27:59;18.56;85.81
76291;DHT22;65100;46.884;17.410;2023-08-06T00:30:24;18.53;86.03
76291;DHT22;65100;46.884;17.410;2023-08-06T00:32:50;18.43;85.97
76291;DHT22;65100;46.884;17.410;2023-08-06T00:35:15;18.36;86.72
76291;DHT22;65100;46.884;17.410;2023-08-06T00:37:41;18.57;86.47
76291;DHT22;65100;46.884;17.410;2023-08-06T00:40:07;18.40;86.92
76291;DHT22;65100;46.884;17.410;2023-08-06T00:42:33;18.30;87.46
76291;DHT22;65100;46.884;17.410;2023-08-06T00:45:00;18.39;87.19
76291;DHT22;65100;46.884;17.410;2023-08-06T00:47:26;18.60;86.23
76291;DHT22;65100;46.884;17.410;2023-08-06T00:49:51;18.43;86.96
76291;DHT22;65100;46.884;17.410;2023-08-06T00:52:17;18.46;86.92
76291;DHT22;65100;46.884;17.410;2023-08-06T00:54:43;18.39;87.04
76291;DHT22;65100;46.884;17.410;2023-08-06T00:57:09;18.37;87.59
76291;DHT22;65100;46.884;17.410;2023-08-06T00:59:34;18.41;87.37
76291;DHT22;65100;46.884;17.410;2023-08-06T01:02:00;18.25;88.28
76291;DHT22;65100;46.884;17.410;2023-08-06T01:04:25;18.29;88.39
76291;DHT22;65100;46.884;17.410;2023-08-06T01:15:32;18.46;87.55
76291;DHT22;65100;46.884;17.410;2023-08-06T01:17:59;18.56;86.95
76291;DHT22;65100;46.884;17.410;2023-08-06T01:20:29;18.67;86.45
76291;DHT22;65100;46.884;17.410;2023-08-06T01:22:55;18.46;86.84
76291;DHT22;65100;46.884;17.410;2023-08-06T01:25:20;18.40;87.32
76291;DHT22;65100;46.884;17.410;2023-08-06T01:27:48;18.41;87.11
76291;DHT22;65100;46.884;17.410;2023-08-06T01:30:26;18.44;87.00
76291;DHT22;65100;46.884;17.410;2023-08-06T01:32:58;18.43;86.57
76291;DHT22;65100;46.884;17.410;2023-08-06T01:35:25;18.54;86.01
76291;DHT22;65100;46.884;17.410;2023-08-06T01:37:52;18.50;86.27
76291;DHT22;65100;46.884;17.410;2023-08-06T01:40:17;18.53;86.22
76291;DHT22;65100;46.884;17.410;2023-08-06T01:43:04;18.49;86.16
76291;DHT22;65100;46.884;17.410;2023-08-06T01:45:50;18.41;86.27
76291;DHT22;65100;46.884;17.410;2023-08-06T01:48:15;18.44;86.27
76291;DHT22;65100;46.884;17.410;2023-08-06T01:50:40;18.51;85.76
76291;DHT22;65100;46.884;17.410;2023-08-06T01:53:06;18.40;86.41
76291;DHT22;65100;46.884;17.410;2023-08-06T01:55:31;18.40;86.32
76291;DHT22;65100;46.884;17.410;2023-08-06T01:57:57;18.39;86.59
76291;DHT22;65100;46.884;17.410;2023-08-06T02:00:22;18.39;86.82
76291;DHT22;65100;46.884;17.410;2023-08-06T02:02:48;18.37;87.09
76291;DHT22;65100;46.884;17.410;2023-08-06T02:05:13;18.47;86.44
76291;DHT22;65100;46.884;17.410;2023-08-06T02:07:38;18.36;87.01
76291;DHT22;65100;46.884;17.410;2023-08-06T02:10:04;18.46;86.88
76291;DHT22;65100;46.884;17.410;2023-08-06T02:12:30;18.41;87.32
76291;DHT22;65100;46.884;17.410;2023-08-06T02:14:55;18.39;87.41
76291;DHT22;65100;46.884;17.410;2023-08-06T02:17:21;18.37;87.89
76291;DHT22;65100;46.884;17.410;2023-08-06T02:19:46;18.44;87.57
76291;DHT22;65100;46.884;17.410;2023-08-06T02:22:12;18.43;87.69
76291;DHT22;65100;46.884;17.410;2023-08-06T02:24:37;17.90;89.95
76291;DHT22;65100;46.884;17.410;2023-08-06T02:27:02;17.89;90.37
76291;DHT22;65100;46.884;17.410;2023-08-06T02:29:28;17.83;90.52
76291;DHT22;65100;46.884;17.410;2023-08-06T02:31:53;18.16;88.50
76291;DHT22;65100;46.884;17.410;2023-08-06T02:34:19;18.20;88.33
76291;DHT22;65100;46.884;17.410;2023-08-06T02:36:44;18.23;87.77
76291;DHT22;65100;46.884;17.410;2023-08-06T02:39:10;18.20;87.92
76291;DHT22;65100;46.884;17.410;2023-08-06T02:41:35;18.03;88.62
76291;DHT22;65100;46.884;17.410;2023-08-06T02:44:01;18.09;88.60
76291;DHT22;65100;46.884;17.410;2023-08-06T02:46:26;18.06;88.49
76291;DHT22;65100;46.884;17.410;2023-08-06T02:48:52;18.23;87.29
76291;DHT22;65100;46.884;17.410;2023-08-06T02:51:17;18.19;87.46
76291;DHT22;65100;46.884;17.410;2023-08-06T02:53:42;18.27;86.79
76291;DHT22;65100;46.884;17.410;2023-08-06T02:56:08;18.22;86.63
76291;DHT22;65100;46.884;17.410;2023-08-06T02:58:33;18.10;86.85
76291;DHT22;65100;46.884;17.410;2023-08-06T03:01:04;18.06;87.09
76291;DHT22;65100;46.884;17.410;2023-08-06T03:03:31;18.09;87.50
76291;DHT22;65100;46.884;17.410;2023-08-06T03:05:57;18.03;87.60
76291;DHT22;65100;46.884;17.410;2023-08-06T03:08:23;18.00;88.11
76291;DHT22;65100;46.884;17.410;2023-08-06T03:10:51;17.90;88.70
76291;DHT22;65100;46.884;17.410;2023-08-06T03:13:17;17.83;89.50
76291;DHT22;65100;46.884;17.410;2023-08-06T03:15:43;17.97;87.70
76291;DHT22;65100;46.884;17.410;2023-08-06T03:18:09;17.96;87.94
76291;DHT22;65100;46.884;17.410;2023-08-06T03:20:34;17.99;86.99
76291;DHT22;65100;46.884;17.410;2023-08-06T03:23:00;17.90;87.24
76291;DHT22;65100;46.884;17.410;2023-08-06T03:25:25;17.90;87.35
76291;DHT22;65100;46.884;17.410;2023-08-06T03:27:51;17.83;87.78
76291;DHT22;65100;46.884;17.410;2023-08-06T03:30:16;17.87;87.97
76291;DHT22;65100;46.884;17.410;2023-08-06T03:32:42;17.87;87.86
76291;DHT22;65100;46.884;17.410;2023-08-06T03:35:08;17.81;87.48
76291;DHT22;65100;46.884;17.410;2023-08-06T03:37:33;17.87;87.54
76291;DHT22;65100;46.884;17.410;2023-08-06T03:39:58;17.85;87.19
76291;DHT22;65100;46.884;17.410;2023-08-06T03:42:24;17.87;87.48
76291;DHT22;65100;46.884;17.410;2023-08-06T03:44:49;17.92;86.91
76291;DHT22;65100;46.884;17.410;2023-08-06T03:47:15;17.79;87.77
76291;DHT22;65100;46.884;17.410;2023-08-06T03:49:40;17.69;88.36
76291;DHT22;65100;46.884;17.410;2023-08-06T03:52:06;17.82;87.67
76291;DHT22;65100;46.884;17.410;2023-08-06T03:54:31;17.90;87.00
76291;DHT22;65100;46.884;17.410;2023-08-06T03:56:57;17.78;87.73
76291;DHT22;65100;46.884;17.410;2023-08-06T03:59:22;17.65;88.56
76291;DHT22;65100;46.884;17.410;2023-08-06T04:01:48;17.68;88.64
76291;DHT22;65100;46.884;17.410;2023-08-06T04:04:13;17.73;88.40
76291;DHT22;65100;46.884;17.410;2023-08-06T04:06:39;17.58;89.24
76291;DHT22;65100;46.884;17.410;2023-08-06T04:09:04;17.78;88.10
76291;DHT22;65100;46.884;17.410;2023-08-06T04:11:30;17.99;87.07
76291;DHT22;65100;46.884;17.410;2023-08-06T04:13:55;17.73;88.17
76291;DHT22;65100;46.884;17.410;2023-08-06T04:16:21;17.61;89.13
76291;DHT22;65100;46.884;17.410;2023-08-06T04:18:46;17.75;88.26
76291;DHT22;65100;46.884;17.410;2023-08-06T04:21:12;17.76;88.05
76291;DHT22;65100;46.884;17.410;2023-08-06T04:23:37;17.75;88.26
76291;DHT22;65100;46.884;17.410;2023-08-06T04:26:03;17.90;87.73
76291;DHT22;65100;46.884;17.410;2023-08-06T04:28:29;18.16;86.85
76291;DHT22;65100;46.884;17.410;2023-08-06T04:30:55;18.14;86.71
76291;DHT22;65100;46.884;17.410;2023-08-06T04:33:20;18.14;86.97
76291;DHT22;65100;46.884;17.410;2023-08-06T04:35:46;18.27;86.50
76291;DHT22;65100;46.884;17.410;2023-08-06T04:38:11;18.16;86.22
76291;DHT22;65100;46.884;17.410;2023-08-06T04:40:37;18.30;86.09
76291;DHT22;65100;46.884;17.410;2023-08-06T04:43:02;18.27;85.87
76291;DHT22;65100;46.884;17.410;2023-08-06T04:45:28;18.44;85.09
76291;DHT22;65100;46.884;17.410;2023-08-06T04:47:53;18.70;84.85
76291;DHT22;65100;46.884;17.410;2023-08-06T04:50:20;18.80;85.12
76291;DHT22;65100;46.884;17.410;2023-08-06T04:52:45;18.75;85.29
76291;DHT22;65100;46.884;17.410;2023-08-06T04:55:11;18.81;85.46
76291;DHT22;65100;46.884;17.410;2023-08-06T04:57:36;18.87;84.89
76291;DHT22;65100;46.884;17.410;2023-08-06T05:00:02;18.87;84.35
76291;DHT22;65100;46.884;17.410;2023-08-06T05:02:27;18.83;85.11
76291;DHT22;65100;46.884;17.410;2023-08-06T05:04:53;18.87;84.96
76291;DHT22;65100;46.884;17.410;2023-08-06T05:07:18;18.80;84.70
76291;DHT22;65100;46.884;17.410;2023-08-06T05:09:44;18.83;84.33
76291;DHT22;65100;46.884;17.410;2023-08-06T05:12:09;18.81;84.64
76291;DHT22;65100;46.884;17.410;2023-08-06T05:14:35;18.84;83.87
76291;DHT22;65100;46.884;17.410;2023-08-06T05:17:00;19.00;83.91
76291;DHT22;65100;46.884;17.410;2023-08-06T05:19:27;18.97;83.36
76291;DHT22;65100;46.884;17.410;2023-08-06T05:21:53;18.91;83.07
76291;DHT22;65100;46.884;17.410;2023-08-06T05:24:18;18.78;83.66
76291;DHT22;65100;46.884;17.410;2023-08-06T05:26:43;18.83;83.31
76291;DHT22;65100;46.884;17.410;2023-08-06T05:29:12;18.74;83.73
76291;DHT22;65100;46.884;17.410;2023-08-06T05:31:37;18.75;83.73
76291;DHT22;65100;46.884;17.410;2023-08-06T05:34:02;18.78;83.09
76291;DHT22;65100;46.884;17.410;2023-08-06T05:36:28;18.81;83.38
76291;DHT22;65100;46.884;17.410;2023-08-06T05:38:53;18.91;82.47
76291;DHT22;65100;46.884;17.410;2023-08-06T05:41:19;18.80;81.78
76291;DHT22;65100;46.884;17.410;2023-08-06T05:43:45;18.85;82.42
76291;DHT22;65100;46.884;17.410;2023-08-06T05:46:10;18.87;82.50
76291;DHT22;65100;46.884;17.410;2023-08-06T05:48:35;18.77;82.68
76291;DHT22;65100;46.884;17.410;2023-08-06T05:51:01;18.81;82.92
76291;DHT22;65100;46.884;17.410;2023-08-06T05:53:26;18.88;82.41
76291;DHT22;65100;46.884;17.410;2023-08-06T05:55:52;18.88;82.00
76291;DHT22;65100;46.884;17.410;2023-08-06T05:58:17;18.98;82.22
76291;DHT22;65100;46.884;17.410;2023-08-06T06:00:45;18.83;81.75
76291;DHT22;65100;46.884;17.410;2023-08-06T06:03:10;18.85;81.88
76291;DHT22;65100;46.884;17.410;2023-08-06T06:05:39;18.87;80.06
76291;DHT22;65100;46.884;17.410;2023-08-06T06:08:04;18.87;80.25
76291;DHT22;65100;46.884;17.410;2023-08-06T06:10:30;18.90;80.19
76291;DHT22;65100;46.884;17.410;2023-08-06T06:12:56;18.93;80.22
76291;DHT22;65100;46.884;17.410;2023-08-06T06:15:21;18.93;80.59
76291;DHT22;65100;46.884;17.410;2023-08-06T06:17:47;18.88;81.36
76291;DHT22;65100;46.884;17.410;2023-08-06T06:20:12;18.97;80.45
76291;DHT22;65100;46.884;17.410;2023-08-06T06:22:38;18.94;80.55
76291;DHT22;65100;46.884;17.410;2023-08-06T06:25:03;18.97;81.06
76291;DHT22;65100;46.884;17.410;2023-08-06T06:27:29;19.00;81.63
76291;DHT22;65100;46.884;17.410;2023-08-06T06:29:54;19.17;80.88
76291;DHT22;65100;46.884;17.410;2023-08-06T06:32:21;19.08;81.73
76291;DHT22;65100;46.884;17.410;2023-08-06T06:34:46;19.10;81.32
76291;DHT22;65100;46.884;17.410;2023-08-06T06:37:11;19.18;80.77
76291;DHT22;65100;46.884;17.410;2023-08-06T06:39:37;19.21;80.81
76291;DHT22;65100;46.884;17.410;2023-08-06T06:42:03;19.24;80.33
76291;DHT22;65100;46.884;17.410;2023-08-06T06:44:28;19.08;80.68
76291;DHT22;65100;46.884;17.410;2023-08-06T06:46:53;19.08;79.92
76291;DHT22;65100;46.884;17.410;2023-08-06T06:49:19;19.18;80.68
76291;DHT22;65100;46.884;17.410;2023-08-06T06:51:44;19.22;80.94
76291;DHT22;65100;46.884;17.410;2023-08-06T06:54:10;19.24;80.88
76291;DHT22;65100;46.884;17.410;2023-08-06T06:56:36;19.35;80.51
76291;DHT22;65100;46.884;17.410;2023-08-06T06:59:02;19.35;80.49
76291;DHT22;65100;46.884;17.410;2023-08-06T07:01:27;19.39;80.82
76291;DHT22;65100;46.884;17.410;2023-08-06T07:03:53;19.45;80.92
76291;DHT22;65100;46.884;17.410;2023-08-06T07:06:18;19.41;81.12
76291;DHT22;65100;46.884;17.410;2023-08-06T07:08:44;19.48;80.74
76291;DHT22;65100;46.884;17.410;2023-08-06T07:11:10;19.52;80.56
76291;DHT22;65100;46.884;17.410;2023-08-06T07:13:35;19.38;80.66
76291;DHT22;65100;46.884;17.410;2023-08-06T07:16:01;19.47;80.60
76291;DHT22;65100;46.884;17.410;2023-08-06T07:18:27;19.47;80.98
76291;DHT22;65100;46.884;17.410;2023-08-06T07:20:53;19.54;81.25
76291;DHT22;65100;46.884;17.410;2023-08-06T07:23:20;19.51;82.00
76291;DHT22;65100;46.884;17.410;2023-08-06T07:25:47;19.57;81.93
76291;DHT22;65100;46.884;17.410;2023-08-06T07:28:13;19.73;81.46
76291;DHT22;65100;46.884;17.410;2023-08-06T07:30:42;19.58;81.78
76291;DHT22;65100;46.884;17.410;2023-08-06T07:33:08;19.66;81.06
76291;DHT22;65100;46.884;17.410;2023-08-06T07:35:35;19.69;81.92
76291;DHT22;65100;46.884;17.410;2023-08-06T07:38:01;19.68;81.34
76291;DHT22;65100;46.884;17.410;2023-08-06T07:40:27;19.78;79.53
76291;DHT22;65100;46.884;17.410;2023-08-06T07:42:52;19.86;80.07
76291;DHT22;65100;46.884;17.410;2023-08-06T07:45:18;19.97;78.16
76291;DHT22;65100;46.884;17.410;2023-08-06T07:47:43;20.00;78.44
76291;DHT22;65100;46.884;17.410;2023-08-06T07:50:09;20.06;77.94
76291;DHT22;65100;46.884;17.410;2023-08-06T07:52:35;20.08;77.14
76291;DHT22;65100;46.884;17.410;2023-08-06T07:55:01;20.13;76.49
76291;DHT22;65100;46.884;17.410;2023-08-06T07:57:32;20.25;75.96
76291;DHT22;65100;46.884;17.410;2023-08-06T07:59:59;20.20;75.70
76291;DHT22;65100;46.884;17.410;2023-08-06T08:02:25;20.36;74.87
76291;DHT22;65100;46.884;17.410;2023-08-06T08:04:50;20.34;75.04
76291;DHT22;65100;46.884;17.410;2023-08-06T08:07:16;20.37;74.75
76291;DHT22;65100;46.884;17.410;2023-08-06T08:09:41;20.51;73.45
76291;DHT22;65100;46.884;17.410;2023-08-06T08:12:07;20.66;73.44
76291;DHT22;65100;46.884;17.410;2023-08-06T08:14:33;20.77;73.26
76291;DHT22;65100;46.884;17.410;2023-08-06T08:17:05;20.80;73.81
76291;DHT22;65100;46.884;17.410;2023-08-06T08:19:31;20.98;70.90
76291;DHT22;65100;46.884;17.410;2023-08-06T08:21:57;21.20;72.07
76291;DHT22;65100;46.884;17.410;2023-08-06T08:24:22;21.39;69.61
76291;DHT22;65100;46.884;17.410;2023-08-06T08:26:51;21.59;70.04
76291;DHT22;65100;46.884;17.410;2023-08-06T08:29:17;21.85;68.43
76291;DHT22;65100;46.884;17.410;2023-08-06T08:31:42;21.99;69.38
76291;DHT22;65100;46.884;17.410;2023-08-06T08:34:08;21.99;69.11
76291;DHT22;65100;46.884;17.410;2023-08-06T08:36:34;22.17;68.63
76291;DHT22;65100;46.884;17.410;2023-08-06T08:38:59;22.14;66.69
76291;DHT22;65100;46.884;17.410;2023-08-06T08:41:28;22.22;66.47
76291;DHT22;65100;46.884;17.410;2023-08-06T08:43:55;22.14;66.91
76291;DHT22;65100;46.884;17.410;2023-08-06T08:46:21;22.23;66.85
76291;DHT22;65100;46.884;17.410;2023-08-06T08:48:47;22.30;68.00
76291;DHT22;65100;46.884;17.410;2023-08-06T08:51:13;22.30;66.43
76291;DHT22;65100;46.884;17.410;2023-08-06T08:53:38;22.47;66.43
76291;DHT22;65100;46.884;17.410;2023-08-06T08:56:05;22.67;65.03
76291;DHT22;65100;46.884;17.410;2023-08-06T08:58:30;22.67;66.09
76291;DHT22;65100;46.884;17.410;2023-08-06T09:00:56;22.70;67.81
76291;DHT22;65100;46.884;17.410;2023-08-06T09:03:23;22.74;65.53
76291;DHT22;65100;46.884;17.410;2023-08-06T09:05:51;22.63;64.73
76291;DHT22;65100;46.884;17.410;2023-08-06T09:08:21;22.53;65.50
76291;DHT22;65100;46.884;17.410;2023-08-06T09:10:50;22.43;66.92
76291;DHT22;65100;46.884;17.410;2023-08-06T09:13:16;22.26;65.87
76291;DHT22;65100;46.884;17.410;2023-08-06T09:15:42;22.47;65.98
76291;DHT22;65100;46.884;17.410;2023-08-06T09:18:10;22.40;66.97
76291;DHT22;65100;46.884;17.410;2023-08-06T09:20:38;22.49;66.80
76291;DHT22;65100;46.884;17.410;2023-08-06T09:23:10;22.60;67.41
76291;DHT22;65100;46.884;17.410;2023-08-06T09:25:38;22.67;67.10
76291;DHT22;65100;46.884;17.410;2023-08-06T09:28:07;22.86;68.44
76291;DHT22;65100;46.884;17.410;2023-08-06T09:30:34;22.97;69.17
76291;DHT22;65100;46.884;17.410;2023-08-06T09:33:00;22.74;67.87
76291;DHT22;65100;46.884;17.410;2023-08-06T09:35:30;22.70;69.28
76291;DHT22;65100;46.884;17.410;2023-08-06T09:37:59;22.76;67.93
76291;DHT22;65100;46.884;17.410;2023-08-06T09:40:32;22.76;68.46
76291;DHT22;65100;46.884;17.410;2023-08-06T09:42:58;22.71;68.37
76291;DHT22;65100;46.884;17.410;2023-08-06T09:45:50;22.81;67.91
76291;DHT22;65100;46.884;17.410;2023-08-06T09:48:16;22.81;66.67
76291;DHT22;65100;46.884;17.410;2023-08-06T09:50:41;22.93;66.87
76291;DHT22;65100;46.884;17.410;2023-08-06T09:53:07;22.80;67.29
76291;DHT22;65100;46.884;17.410;2023-08-06T09:55:36;22.61;67.43
76291;DHT22;65100;46.884;17.410;2023-08-06T09:58:02;22.46;69.26
76291;DHT22;65100;46.884;17.410;2023-08-06T10:00:28;22.23;69.57
76291;DHT22;65100;46.884;17.410;2023-08-06T10:02:54;22.20;70.13
76291;DHT22;65100;46.884;17.410;2023-08-06T10:05:24;22.22;70.29
76291;DHT22;65100;46.884;17.410;2023-08-06T10:07:50;22.29;69.80
76291;DHT22;65100;46.884;17.410;2023-08-06T10:10:17;21.93;71.34
76291;DHT22;65100;46.884;17.410;2023-08-06T10:12:50;21.83;71.00
76291;DHT22;65100;46.884;17.410;2023-08-06T10:15:20;21.90;71.07
76291;DHT22;65100;46.884;17.410;2023-08-06T10:17:47;21.78;71.92
76291;DHT22;65100;46.884;17.410;2023-08-06T10:20:15;22.00;70.79
76291;DHT22;65100;46.884;17.410;2023-08-06T10:22:44;21.71;70.58
76291;DHT22;65100;46.884;17.410;2023-08-06T10:25:10;21.82;71.05
76291;DHT22;65100;46.884;17.410;2023-08-06T10:28:08;21.65;70.84
76291;DHT22;65100;46.884;17.410;2023-08-06T10:30:47;21.81;71.35
76291;DHT22;65100;46.884;17.410;2023-08-06T10:33:12;21.85;70.80
76291;DHT22;65100;46.884;17.410;2023-08-06T10:40:41;22.09;69.75
76291;DHT22;65100;46.884;17.410;2023-08-06T10:43:07;21.98;70.41
76291;DHT22;65100;46.884;17.410;2023-08-06T10:45:36;21.82;71.33
76291;DHT22;65100;46.884;17.410;2023-08-06T10:48:02;21.72;71.52
76291;DHT22;65100;46.884;17.410;2023-08-06T10:50:27;21.61;71.40
76291;DHT22;65100;46.884;17.410;2023-08-06T10:52:53;21.45;72.38
76291;DHT22;65100;46.884;17.410;2023-08-06T10:55:27;21.42;72.36
76291;DHT22;65100;46.884;17.410;2023-08-06T10:57:53;21.25;72.23
76291;DHT22;65100;46.884;17.410;2023-08-06T11:00:20;21.10;72.52
76291;DHT22;65100;46.884;17.410;2023-08-06T11:02:47;21.00;74.49
76291;DHT22;65100;46.884;17.410;2023-08-06T11:05:13;20.87;74.92
76291;DHT22;65100;46.884;17.410;2023-08-06T11:07:38;20.94;75.60
76291;DHT22;65100;46.884;17.410;2023-08-06T11:10:08;20.90;73.89
76291;DHT22;65100;46.884;17.410;2023-08-06T11:12:35;20.56;74.66
76291;DHT22;65100;46.884;17.410;2023-08-06T11:15:01;20.54;75.31
76291;DHT22;65100;46.884;17.410;2023-08-06T11:17:28;20.51;76.18
76291;DHT22;65100;46.884;17.410;2023-08-06T11:19:54;20.46;76.70
76291;DHT22;65100;46.884;17.410;2023-08-06T11:22:21;20.64;75.77
76291;DHT22;65100;46.884;17.410;2023-08-06T11:24:47;20.46;76.75
76291;DHT22;65100;46.884;17.410;2023-08-06T11:27:13;20.51;76.25
76291;DHT22;65100;46.884;17.410;2023-08-06T11:29:40;20.54;75.86
76291;DHT22;65100;46.884;17.410;2023-08-06T11:32:06;20.47;76.74
76291;DHT22;65100;46.884;17.410;2023-08-06T11:34:31;20.53;76.28
76291;DHT22;65100;46.884;17.410;2023-08-06T11:36:57;20.53;76.15
76291;DHT22;65100;46.884;17.410;2023-08-06T11:39:23;20.57;75.85
76291;DHT22;65100;46.884;17.410;2023-08-06T11:41:49;20.39;76.71
76291;DHT22;65100;46.884;17.410;2023-08-06T11:44:14;20.20;77.92
76291;DHT22;65100;46.884;17.410;2023-08-06T11:46:52;20.13;79.42
76291;DHT22;65100;46.884;17.410;2023-08-06T11:49:18;20.13;79.49
76291;DHT22;65100;46.884;17.410;2023-08-06T11:51:49;19.72;81.87
76291;DHT22;65100;46.884;17.410;2023-08-06T11:54:15;19.83;81.80
76291;DHT22;65100;46.884;17.410;2023-08-06T11:56:40;19.96;80.51
76291;DHT22;65100;46.884;17.410;2023-08-06T11:59:06;19.90;80.91
76291;DHT22;65100;46.884;17.410;2023-08-06T12:01:31;19.78;81.50
76291;DHT22;65100;46.884;17.410;2023-08-06T12:04:00;19.61;81.32
76291;DHT22;65100;46.884;17.410;2023-08-06T12:06:28;19.38;80.13
76291;DHT22;65100;46.884;17.410;2023-08-06T12:08:54;18.91;82.29
76291;DHT22;65100;46.884;17.410;2023-08-06T12:11:21;18.94;82.38
76291;DHT22;65100;46.884;17.410;2023-08-06T12:13:50;18.85;83.50
76291;DHT22;65100;46.884;17.410;2023-08-06T12:16:16;18.53;84.48
76291;DHT22;65100;46.884;17.410;2023-08-06T12:18:44;18.80;83.75
76291;DHT22;65100;46.884;17.410;2023-08-06T12:21:09;18.64;84.46
76291;DHT22;65100;46.884;17.410;2023-08-06T12:23:55;18.74;84.20
76291;DHT22;65100;46.884;17.410;2023-08-06T12:26:41;18.81;84.00
76291;DHT22;65100;46.884;17.410;2023-08-06T12:29:07;18.81;83.65
76291;DHT22;65100;46.884;17.410;2023-08-06T12:31:32;18.59;84.77
76291;DHT22;65100;46.884;17.410;2023-08-06T12:33:58;18.57;84.41
76291;DHT22;65100;46.884;17.410;2023-08-06T12:36:23;18.63;83.59
76291;DHT22;65100;46.884;17.410;2023-08-06T12:38:48;18.49;84.21
76291;DHT22;65100;46.884;17.410;2023-08-06T12:41:14;18.56;83.72
76291;DHT22;65100;46.884;17.410;2023-08-06T12:43:40;18.53;84.13
76291;DHT22;65100;46.884;17.410;2023-08-06T12:46:05;18.41;84.94
76291;DHT22;65100;46.884;17.410;2023-08-06T12:48:31;18.61;84.72
76291;DHT22;65100;46.884;17.410;2023-08-06T12:50:56;18.60;85.16
76291;DHT22;65100;46.884;17.410;2023-08-06T12:53:21;18.47;85.39
76291;DHT22;65100;46.884;17.410;2023-08-06T12:55:48;18.75;83.44
76291;DHT22;65100;46.884;17.410;2023-08-06T12:58:14;18.88;82.81
76291;DHT22;65100;46.884;17.410;2023-08-06T13:00:39;18.77;83.83
76291;DHT22;65100;46.884;17.410;2023-08-06T13:03:04;18.90;83.90
76291;DHT22;65100;46.884;17.410;2023-08-06T13:05:30;18.85;84.92
76291;DHT22;65100;46.884;17.410;2023-08-06T13:07:55;18.95;85.65
76291;DHT22;65100;46.884;17.410;2023-08-06T13:10:21;19.15;84.21
76291;DHT22;65100;46.884;17.410;2023-08-06T13:12:48;19.27;84.42
76291;DHT22;65100;46.884;17.410;2023-08-06T13:15:13;19.44;83.52
76291;DHT22;65100;46.884;17.410;2023-08-06T13:17:39;19.59;82.88
76291;DHT22;65100;46.884;17.410;2023-08-06T13:20:05;19.49;81.53
76291;DHT22;65100;46.884;17.410;2023-08-06T13:22:31;19.36;83.04
76291;DHT22;65100;46.884;17.410;2023-08-06T13:24:56;19.44;82.67
76291;DHT22;65100;46.884;17.410;2023-08-06T13:27:22;19.41;83.36
76291;DHT22;65100;46.884;17.410;2023-08-06T13:29:47;19.47;82.83
76291;DHT22;65100;46.884;17.410;2023-08-06T13:32:13;19.51;83.19
76291;DHT22;65100;46.884;17.410;2023-08-06T13:34:38;19.44;82.86
76291;DHT22;65100;46.884;17.410;2023-08-06T13:37:03;19.62;82.52
76291;DHT22;65100;46.884;17.410;2023-08-06T13:39:29;19.71;81.87
76291;DHT22;65100;46.884;17.410;2023-08-06T13:41:54;19.81;82.59
76291;DHT22;65100;46.884;17.410;2023-08-06T13:44:20;19.93;81.86
76291;DHT22;65100;46.884;17.410;2023-08-06T13:46:45;20.00;81.61
76291;DHT22;65100;46.884;17.410;2023-08-06T13:49:11;19.81;81.77
76291;DHT22;65100;46.884;17.410;2023-08-06T13:51:36;19.94;81.83
76291;DHT22;65100;46.884;17.410;2023-08-06T13:54:03;19.96;81.69
76291;DHT22;65100;46.884;17.410;2023-08-06T13:56:28;19.96;82.09
76291;DHT22;65100;46.884;17.410;2023-08-06T13:58:55;19.83;81.81
76291;DHT22;65100;46.884;17.410;2023-08-06T14:01:20;19.94;81.88
76291;DHT22;65100;46.884;17.410;2023-08-06T14:03:46;19.96;81.95
76291;DHT22;65100;46.884;17.410;2023-08-06T14:06:11;19.99;82.58
76291;DHT22;65100;46.884;17.410;2023-08-06T14:08:37;20.15;81.75
76291;DHT22;65100;46.884;17.410;2023-08-06T14:11:02;20.19;81.45
76291;DHT22;65100;46.884;17.410;2023-08-06T14:13:28;20.36;80.52
76291;DHT22;65100;46.884;17.410;2023-08-06T14:15:53;20.40;79.85
76291;DHT22;65100;46.884;17.410;2023-08-06T14:18:19;20.34;79.83
76291;DHT22;65100;46.884;17.410;2023-08-06T14:20:44;20.23;80.39
76291;DHT22;65100;46.884;17.410;2023-08-06T14:23:10;20.09;80.02
76291;DHT22;65100;46.884;17.410;2023-08-06T14:25:36;20.06;80.62
76291;DHT22;65100;46.884;17.410;2023-08-06T14:28:01;20.22;79.79
76291;DHT22;65100;46.884;17.410;2023-08-06T14:30:27;20.19;80.27
76291;DHT22;65100;46.884;17.410;2023-08-06T14:32:52;20.27;80.21
76291;DHT22;65100;46.884;17.410;2023-08-06T14:35:18;20.26;80.60
76291;DHT22;65100;46.884;17.410;2023-08-06T14:37:44;20.30;80.14
76291;DHT22;65100;46.884;17.410;2023-08-06T14:40:11;20.39;79.41
76291;DHT22;65100;46.884;17.410;2023-08-06T14:42:36;20.48;79.61
76291;DHT22;65100;46.884;17.410;2023-08-06T14:45:02;20.44;80.00
76291;DHT22;65100;46.884;17.410;2023-08-06T14:47:29;20.39;79.53
76291;DHT22;65100;46.884;17.410;2023-08-06T14:49:54;20.58;79.59
76291;DHT22;65100;46.884;17.410;2023-08-06T14:52:19;20.73;78.19
76291;DHT22;65100;46.884;17.410;2023-08-06T14:54:45;20.71;78.24
76291;DHT22;65100;46.884;17.410;2023-08-06T14:57:10;20.73;78.05
76291;DHT22;65100;46.884;17.410;2023-08-06T14:59:36;20.66;79.01
76291;DHT22;65100;46.884;17.410;2023-08-06T15:02:23;20.70;78.29
76291;DHT22;65100;46.884;17.410;2023-08-06T15:04:49;20.85;78.74
76291;DHT22;65100;46.884;17.410;2023-08-06T15:07:15;20.81;78.21
76291;DHT22;65100;46.884;17.410;2023-08-06T15:09:40;20.81;77.63
76291;DHT22;65100;46.884;17.410;2023-08-06T15:12:06;20.97;76.31
76291;DHT22;65100;46.884;17.410;2023-08-06T15:14:32;20.88;76.56
76291;DHT22;65100;46.884;17.410;2023-08-06T15:16:57;20.92;77.32
76291;DHT22;65100;46.884;17.410;2023-08-06T15:19:24;21.18;75.81
76291;DHT22;65100;46.884;17.410;2023-08-06T15:21:50;21.08;77.09
76291;DHT22;65100;46.884;17.410;2023-08-06T15:24:15;21.17;77.64